sensor_id;sensor_type;location;lat;lon;timestamp;P1;durP1;ratioP1;P2;durP2;ratioP2
77220;SDS011;66217;50.004;8.266;2023-04-15T00:00:09;9.98;;;4.00;;
77220;SDS011;66217;50.004;8.266;2023-04-15T00:02:38;11.25;;;4.35;;
77220;SDS011;66217;50.004;8.266;2023-04-15T00:05:04;8.43;;;3.67;;
77220;SDS011;66217;50.004;8.266;2023-04-15T00:07:30;10.02;;;3.83;;
77220;SDS011;66217;50.004;8.266;2023-04-15T00:09:56;7.00;;;3.17;;
77220;SDS011;66217;50.004;8.266;2023-04-15T00:12:25;9.75;;;3.53;;
77220;SDS011;66217;50.004;8.266;2023-04-15T00:14:51;10.13;;;4.60;;
77220;SDS011;66217;50.004;8.266;2023-04-15T00:17:17;9.60;;;3.85;;
77220;SDS011;66217;50.004;8.266;2023-04-15T00:19:43;10.45;;;3.45;;
77220;SDS011;66217;50.004;8.266;2023-04-15T00:22:10;8.25;;;3.00;;
77220;SDS011;66217;50.004;8.266;2023-04-15T00:24:36;9.52;;;3.83;;
77220;SDS011;66217;50.004;8.266;2023-04-15T00:27:02;8.60;;;3.70;;
77220;SDS011;66217;50.004;8.266;2023-04-15T00:29:27;9.07;;;3.70;;
77220;SDS011;66217;50.004;8.266;2023-04-15T00:31:54;10.43;;;3.80;;
77220;SDS011;66217;50.004;8.266;2023-04-15T00:34:21;8.63;;;3.42;;
77220;SDS011;66217;50.004;8.266;2023-04-15T00:36:47;9.40;;;3.13;;
77220;SDS011;66217;50.004;8.266;2023-04-15T00:39:16;7.95;;;3.35;;
77220;SDS011;66217;50.004;8.266;2023-04-15T00:41:42;8.10;;;4.07;;
77220;SDS011;66217;50.004;8.266;2023-04-15T00:44:08;7.40;;;3.22;;
77220;SDS011;66217;50.004;8.266;2023-04-15T00:46:34;6.28;;;3.03;;
77220;SDS011;66217;50.004;8.266;2023-04-15T00:49:02;7.07;;;2.70;;
77220;SDS011;66217;50.004;8.266;2023-04-15T00:51:28;7.55;;;2.85;;
77220;SDS011;66217;50.004;8.266;2023-04-15T00:53:55;7.72;;;3.22;;
77220;SDS011;66217;50.004;8.266;2023-04-15T00:56:21;5.82;;;2.97;;
77220;SDS011;66217;50.004;8.266;2023-04-15T00:58:50;5.53;;;2.60;;
77220;SDS011;66217;50.004;8.266;2023-04-15T01:01:16;11.18;;;3.67;;
77220;SDS011;66217;50.004;8.266;2023-04-15T01:03:45;6.88;;;3.10;;
77220;SDS011;66217;50.004;8.266;2023-04-15T01:06:11;6.30;;;2.67;;
77220;SDS011;66217;50.004;8.266;2023-04-15T01:08:36;8.52;;;3.13;;
77220;SDS011;66217;50.004;8.266;2023-04-15T01:11:02;7.25;;;2.97;;
77220;SDS011;66217;50.004;8.266;2023-04-15T01:13:27;4.50;;;2.42;;
77220;SDS011;66217;50.004;8.266;2023-04-15T01:15:53;6.38;;;2.42;;
77220;SDS011;66217;50.004;8.266;2023-04-15T01:18:20;5.90;;;2.80;;
77220;SDS011;66217;50.004;8.266;2023-04-15T01:20:46;6.18;;;2.63;;
77220;SDS011;66217;50.004;8.266;2023-04-15T01:23:12;5.97;;;2.70;;
77220;SDS011;66217;50.004;8.266;2023-04-15T01:25:37;11.30;;;2.97;;
77220;SDS011;66217;50.004;8.266;2023-04-15T01:28:03;7.95;;;3.03;;
77220;SDS011;66217;50.004;8.266;2023-04-15T01:30:33;7.90;;;2.95;;
77220;SDS011;66217;50.004;8.266;2023-04-15T01:32:59;6.60;;;2.65;;
77220;SDS011;66217;50.004;8.266;2023-04-15T01:35:24;9.07;;;2.78;;
77220;SDS011;66217;50.004;8.266;2023-04-15T01:37:50;6.47;;;3.53;;
77220;SDS011;66217;50.004;8.266;2023-04-15T01:40:15;13.52;;;4.38;;
77220;SDS011;66217;50.004;8.266;2023-04-15T01:42:41;9.30;;;3.40;;
77220;SDS011;66217;50.004;8.266;2023-04-15T01:45:07;13.43;;;4.22;;
77220;SDS011;66217;50.004;8.266;2023-04-15T01:47:35;11.50;;;4.35;;
77220;SDS011;66217;50.004;8.266;2023-04-15T01:50:01;15.80;;;4.22;;
77220;SDS011;66217;50.004;8.266;2023-04-15T01:52:27;14.30;;;4.72;;
77220;SDS011;66217;50.004;8.266;2023-04-15T01:54:52;15.48;;;5.07;;
77220;SDS011;66217;50.004;8.266;2023-04-15T01:57:18;15.60;;;5.70;;
77220;SDS011;66217;50.004;8.266;2023-04-15T01:59:43;14.88;;;5.53;;
77220;SDS011;66217;50.004;8.266;2023-04-15T02:02:09;7.75;;;3.83;;
77220;SDS011;66217;50.004;8.266;2023-04-15T02:04:34;12.70;;;3.63;;
77220;SDS011;66217;50.004;8.266;2023-04-15T02:07:00;11.73;;;4.32;;
77220;SDS011;66217;50.004;8.266;2023-04-15T02:09:25;17.38;;;5.38;;
77220;SDS011;66217;50.004;8.266;2023-04-15T02:11:51;15.02;;;5.25;;
77220;SDS011;66217;50.004;8.266;2023-04-15T02:14:18;10.52;;;4.63;;
77220;SDS011;66217;50.004;8.266;2023-04-15T02:16:45;12.73;;;5.00;;
77220;SDS011;66217;50.004;8.266;2023-04-15T02:19:13;11.60;;;5.30;;
77220;SDS011;66217;50.004;8.266;2023-04-15T02:21:40;8.82;;;4.63;;
77220;SDS011;66217;50.004;8.266;2023-04-15T02:24:06;10.52;;;3.63;;
77220;SDS011;66217;50.004;8.266;2023-04-15T02:26:32;6.72;;;3.78;;
77220;SDS011;66217;50.004;8.266;2023-04-15T02:28:57;8.60;;;3.53;;
77220;SDS011;66217;50.004;8.266;2023-04-15T02:31:23;7.07;;;2.80;;
77220;SDS011;66217;50.004;8.266;2023-04-15T02:33:50;12.75;;;3.53;;
77220;SDS011;66217;50.004;8.266;2023-04-15T02:36:16;6.40;;;2.97;;
77220;SDS011;66217;50.004;8.266;2023-04-15T02:38:42;12.80;;;3.65;;
77220;SDS011;66217;50.004;8.266;2023-04-15T02:41:10;7.88;;;3.15;;
77220;SDS011;66217;50.004;8.266;2023-04-15T02:43:36;11.70;;;3.55;;
77220;SDS011;66217;50.004;8.266;2023-04-15T02:46:04;12.07;;;3.67;;
77220;SDS011;66217;50.004;8.266;2023-04-15T02:48:30;10.85;;;3.45;;
77220;SDS011;66217;50.004;8.266;2023-04-15T02:51:11;11.57;;;3.42;;
77220;SDS011;66217;50.004;8.266;2023-04-15T02:53:41;7.50;;;3.38;;
77220;SDS011;66217;50.004;8.266;2023-04-15T02:56:06;12.52;;;3.42;;
77220;SDS011;66217;50.004;8.266;2023-04-15T02:58:32;8.50;;;3.63;;
77220;SDS011;66217;50.004;8.266;2023-04-15T03:00:58;8.73;;;3.00;;
77220;SDS011;66217;50.004;8.266;2023-04-15T03:03:24;8.45;;;3.95;;
77220;SDS011;66217;50.004;8.266;2023-04-15T03:05:50;6.60;;;2.80;;
77220;SDS011;66217;50.004;8.266;2023-04-15T03:08:16;8.52;;;3.03;;
77220;SDS011;66217;50.004;8.266;2023-04-15T03:10:42;6.68;;;2.88;;
77220;SDS011;66217;50.004;8.266;2023-04-15T03:13:07;6.57;;;2.25;;
77220;SDS011;66217;50.004;8.266;2023-04-15T03:15:33;9.02;;;3.05;;
77220;SDS011;66217;50.004;8.266;2023-04-15T03:17:59;6.80;;;2.70;;
77220;SDS011;66217;50.004;8.266;2023-04-15T03:20:25;7.53;;;2.92;;
77220;SDS011;66217;50.004;8.266;2023-04-15T03:22:51;4.57;;;2.25;;
77220;SDS011;66217;50.004;8.266;2023-04-15T03:25:18;6.72;;;2.75;;
77220;SDS011;66217;50.004;8.266;2023-04-15T03:27:43;5.88;;;2.67;;
77220;SDS011;66217;50.004;8.266;2023-04-15T03:30:10;8.02;;;2.45;;
77220;SDS011;66217;50.004;8.266;2023-04-15T03:32:37;6.35;;;2.72;;
77220;SDS011;66217;50.004;8.266;2023-04-15T03:35:05;4.60;;;2.65;;
77220;SDS011;66217;50.004;8.266;2023-04-15T03:37:30;8.45;;;2.63;;
77220;SDS011;66217;50.004;8.266;2023-04-15T03:39:56;7.65;;;2.78;;
77220;SDS011;66217;50.004;8.266;2023-04-15T03:42:21;5.90;;;2.38;;
77220;SDS011;66217;50.004;8.266;2023-04-15T03:44:47;6.40;;;2.90;;
77220;SDS011;66217;50.004;8.266;2023-04-15T03:47:12;10.55;;;2.70;;
77220;SDS011;66217;50.004;8.266;2023-04-15T03:49:38;8.02;;;2.97;;
77220;SDS011;66217;50.004;8.266;2023-04-15T03:52:03;7.13;;;2.40;;
77220;SDS011;66217;50.004;8.266;2023-04-15T03:54:29;5.38;;;2.33;;
77220;SDS011;66217;50.004;8.266;2023-04-15T03:56:54;7.82;;;2.45;;
77220;SDS011;66217;50.004;8.266;2023-04-15T03:59:20;9.95;;;3.03;;
77220;SDS011;66217;50.004;8.266;2023-04-15T04:01:46;5.00;;;2.63;;
77220;SDS011;66217;50.004;8.266;2023-04-15T04:04:11;9.55;;;3.05;;
77220;SDS011;66217;50.004;8.266;2023-04-15T04:06:37;6.80;;;3.10;;
77220;SDS011;66217;50.004;8.266;2023-04-15T04:09:02;5.75;;;2.70;;
77220;SDS011;66217;50.004;8.266;2023-04-15T04:11:28;6.10;;;2.88;;
77220;SDS011;66217;50.004;8.266;2023-04-15T04:13:53;10.90;;;3.00;;
77220;SDS011;66217;50.004;8.266;2023-04-15T04:16:18;8.10;;;3.08;;
77220;SDS011;66217;50.004;8.266;2023-04-15T04:18:44;8.38;;;2.83;;
77220;SDS011;66217;50.004;8.266;2023-04-15T04:21:10;5.45;;;2.45;;
77220;SDS011;66217;50.004;8.266;2023-04-15T04:23:35;9.00;;;2.97;;
77220;SDS011;66217;50.004;8.266;2023-04-15T04:26:01;8.93;;;2.20;;
77220;SDS011;66217;50.004;8.266;2023-04-15T04:28:26;10.88;;;3.05;;
77220;SDS011;66217;50.004;8.266;2023-04-15T04:30:52;7.70;;;2.83;;
77220;SDS011;66217;50.004;8.266;2023-04-15T04:33:17;9.57;;;2.80;;
77220;SDS011;66217;50.004;8.266;2023-04-15T04:35:43;10.23;;;3.08;;
77220;SDS011;66217;50.004;8.266;2023-04-15T04:38:08;8.63;;;2.85;;
77220;SDS011;66217;50.004;8.266;2023-04-15T04:40:34;7.22;;;2.92;;
77220;SDS011;66217;50.004;8.266;2023-04-15T04:42:59;6.05;;;2.25;;
77220;SDS011;66217;50.004;8.266;2023-04-15T04:45:25;5.40;;;2.60;;
77220;SDS011;66217;50.004;8.266;2023-04-15T04:47:51;6.80;;;2.60;;
77220;SDS011;66217;50.004;8.266;2023-04-15T04:50:16;4.55;;;2.22;;
77220;SDS011;66217;50.004;8.266;2023-04-15T04:52:42;8.82;;;2.35;;
77220;SDS011;66217;50.004;8.266;2023-04-15T04:55:07;9.20;;;2.85;;
77220;SDS011;66217;50.004;8.266;2023-04-15T04:57:33;5.93;;;2.88;;
77220;SDS011;66217;50.004;8.266;2023-04-15T05:00:00;6.20;;;2.30;;
77220;SDS011;66217;50.004;8.266;2023-04-15T05:02:27;4.28;;;2.30;;
77220;SDS011;66217;50.004;8.266;2023-04-15T05:04:52;5.03;;;2.35;;
77220;SDS011;66217;50.004;8.266;2023-04-15T05:07:20;4.63;;;2.25;;
77220;SDS011;66217;50.004;8.266;2023-04-15T05:09:46;6.22;;;2.92;;
77220;SDS011;66217;50.004;8.266;2023-04-15T05:12:11;4.65;;;2.30;;
77220;SDS011;66217;50.004;8.266;2023-04-15T05:14:39;5.05;;;2.28;;
77220;SDS011;66217;50.004;8.266;2023-04-15T05:17:06;6.72;;;2.40;;
77220;SDS011;66217;50.004;8.266;2023-04-15T05:19:31;4.32;;;2.15;;
77220;SDS011;66217;50.004;8.266;2023-04-15T05:21:57;5.97;;;2.63;;
77220;SDS011;66217;50.004;8.266;2023-04-15T05:24:22;6.63;;;2.70;;
77220;SDS011;66217;50.004;8.266;2023-04-15T05:26:48;10.02;;;2.55;;
77220;SDS011;66217;50.004;8.266;2023-04-15T05:29:13;4.90;;;2.85;;
77220;SDS011;66217;50.004;8.266;2023-04-15T05:31:39;5.82;;;2.53;;
77220;SDS011;66217;50.004;8.266;2023-04-15T05:34:04;6.72;;;2.83;;
77220;SDS011;66217;50.004;8.266;2023-04-15T05:36:31;8.73;;;3.22;;
77220;SDS011;66217;50.004;8.266;2023-04-15T05:38:57;8.77;;;2.50;;
77220;SDS011;66217;50.004;8.266;2023-04-15T05:41:22;5.60;;;2.25;;
77220;SDS011;66217;50.004;8.266;2023-04-15T05:43:48;11.27;;;2.85;;
77220;SDS011;66217;50.004;8.266;2023-04-15T05:46:13;4.50;;;2.60;;
77220;SDS011;66217;50.004;8.266;2023-04-15T05:48:39;6.28;;;2.47;;
77220;SDS011;66217;50.004;8.266;2023-04-15T05:51:04;7.25;;;2.50;;
77220;SDS011;66217;50.004;8.266;2023-04-15T05:53:30;5.38;;;2.47;;
77220;SDS011;66217;50.004;8.266;2023-04-15T05:55:56;8.73;;;3.08;;
77220;SDS011;66217;50.004;8.266;2023-04-15T05:58:22;3.55;;;2.20;;
77220;SDS011;66217;50.004;8.266;2023-04-15T06:00:47;8.35;;;2.90;;
77220;SDS011;66217;50.004;8.266;2023-04-15T06:03:12;6.57;;;2.55;;
77220;SDS011;66217;50.004;8.266;2023-04-15T06:05:38;5.70;;;2.40;;
77220;SDS011;66217;50.004;8.266;2023-04-15T06:08:03;4.07;;;2.08;;
77220;SDS011;66217;50.004;8.266;2023-04-15T06:10:29;9.75;;;2.33;;
77220;SDS011;66217;50.004;8.266;2023-04-15T06:12:55;6.20;;;2.55;;
77220;SDS011;66217;50.004;8.266;2023-04-15T06:15:20;8.00;;;2.47;;
77220;SDS011;66217;50.004;8.266;2023-04-15T06:17:45;7.50;;;2.55;;
77220;SDS011;66217;50.004;8.266;2023-04-15T06:20:11;5.72;;;2.80;;
77220;SDS011;66217;50.004;8.266;2023-04-15T06:22:39;10.00;;;3.30;;
77220;SDS011;66217;50.004;8.266;2023-04-15T06:25:05;4.80;;;2.13;;
77220;SDS011;66217;50.004;8.266;2023-04-15T06:27:32;15.68;;;3.35;;
77220;SDS011;66217;50.004;8.266;2023-04-15T06:29:57;9.25;;;3.08;;
77220;SDS011;66217;50.004;8.266;2023-04-15T06:32:23;9.32;;;2.60;;
77220;SDS011;66217;50.004;8.266;2023-04-15T06:34:48;11.38;;;2.70;;
77220;SDS011;66217;50.004;8.266;2023-04-15T06:37:13;5.75;;;2.40;;
77220;SDS011;66217;50.004;8.266;2023-04-15T06:39:40;10.75;;;2.45;;
77220;SDS011;66217;50.004;8.266;2023-04-15T06:42:07;5.20;;;2.35;;
77220;SDS011;66217;50.004;8.266;2023-04-15T06:44:33;5.53;;;3.00;;
77220;SDS011;66217;50.004;8.266;2023-04-15T06:46:58;3.55;;;2.60;;
77220;SDS011;66217;50.004;8.266;2023-04-15T06:49:24;5.18;;;2.20;;
77220;SDS011;66217;50.004;8.266;2023-04-15T06:51:49;6.55;;;2.40;;
77220;SDS011;66217;50.004;8.266;2023-04-15T06:54:15;8.43;;;2.65;;
77220;SDS011;66217;50.004;8.266;2023-04-15T06:56:41;7.43;;;2.63;;
77220;SDS011;66217;50.004;8.266;2023-04-15T06:59:07;6.10;;;2.75;;
77220;SDS011;66217;50.004;8.266;2023-04-15T07:01:32;4.03;;;2.60;;
77220;SDS011;66217;50.004;8.266;2023-04-15T07:03:58;4.63;;;2.47;;
77220;SDS011;66217;50.004;8.266;2023-04-15T07:06:23;5.95;;;2.60;;
77220;SDS011;66217;50.004;8.266;2023-04-15T07:08:50;5.43;;;2.55;;
77220;SDS011;66217;50.004;8.266;2023-04-15T07:11:15;6.03;;;2.70;;
77220;SDS011;66217;50.004;8.266;2023-04-15T07:13:41;6.30;;;2.38;;
77220;SDS011;66217;50.004;8.266;2023-04-15T07:16:07;8.90;;;2.63;;
77220;SDS011;66217;50.004;8.266;2023-04-15T07:18:33;7.53;;;2.65;;
77220;SDS011;66217;50.004;8.266;2023-04-15T07:20:58;6.97;;;2.60;;
77220;SDS011;66217;50.004;8.266;2023-04-15T07:23:24;6.00;;;2.63;;
77220;SDS011;66217;50.004;8.266;2023-04-15T07:25:49;4.07;;;2.58;;
77220;SDS011;66217;50.004;8.266;2023-04-15T07:28:15;5.43;;;2.67;;
77220;SDS011;66217;50.004;8.266;2023-04-15T07:30:41;6.13;;;2.67;;
77220;SDS011;66217;50.004;8.266;2023-04-15T07:33:06;7.65;;;2.80;;
77220;SDS011;66217;50.004;8.266;2023-04-15T07:35:31;7.40;;;3.47;;
77220;SDS011;66217;50.004;8.266;2023-04-15T07:37:57;7.30;;;2.95;;
77220;SDS011;66217;50.004;8.266;2023-04-15T07:40:22;5.40;;;2.83;;
77220;SDS011;66217;50.004;8.266;2023-04-15T07:42:48;8.52;;;2.95;;
77220;SDS011;66217;50.004;8.266;2023-04-15T07:45:14;8.70;;;2.95;;
77220;SDS011;66217;50.004;8.266;2023-04-15T07:47:40;5.55;;;3.15;;
77220;SDS011;66217;50.004;8.266;2023-04-15T07:50:07;11.15;;;3.20;;
77220;SDS011;66217;50.004;8.266;2023-04-15T07:52:34;9.07;;;3.45;;
77220;SDS011;66217;50.004;8.266;2023-04-15T07:55:06;7.93;;;3.83;;
77220;SDS011;66217;50.004;8.266;2023-04-15T07:57:33;8.35;;;3.40;;
77220;SDS011;66217;50.004;8.266;2023-04-15T07:59:59;11.77;;;3.83;;
77220;SDS011;66217;50.004;8.266;2023-04-15T08:02:25;9.45;;;3.30;;
77220;SDS011;66217;50.004;8.266;2023-04-15T08:04:50;6.43;;;2.78;;
77220;SDS011;66217;50.004;8.266;2023-04-15T08:07:17;6.55;;;3.10;;
77220;SDS011;66217;50.004;8.266;2023-04-15T08:09:49;12.98;;;3.28;;
77220;SDS011;66217;50.004;8.266;2023-04-15T08:12:15;6.50;;;3.03;;
77220;SDS011;66217;50.004;8.266;2023-04-15T08:14:40;9.20;;;3.20;;
77220;SDS011;66217;50.004;8.266;2023-04-15T08:17:06;8.70;;;2.90;;
77220;SDS011;66217;50.004;8.266;2023-04-15T08:19:31;6.18;;;3.00;;
77220;SDS011;66217;50.004;8.266;2023-04-15T08:21:57;17.73;;;10.18;;
77220;SDS011;66217;50.004;8.266;2023-04-15T08:24:23;6.95;;;3.65;;
77220;SDS011;66217;50.004;8.266;2023-04-15T08:26:50;7.38;;;3.38;;
77220;SDS011;66217;50.004;8.266;2023-04-15T08:29:16;11.68;;;3.67;;
77220;SDS011;66217;50.004;8.266;2023-04-15T08:31:41;8.20;;;3.53;;
77220;SDS011;66217;50.004;8.266;2023-04-15T08:34:07;8.77;;;3.13;;
77220;SDS011;66217;50.004;8.266;2023-04-15T08:36:33;7.35;;;2.83;;
77220;SDS011;66217;50.004;8.266;2023-04-15T08:38:58;13.40;;;3.92;;
77220;SDS011;66217;50.004;8.266;2023-04-15T08:41:26;8.63;;;3.47;;
77220;SDS011;66217;50.004;8.266;2023-04-15T08:44:05;7.90;;;3.30;;
77220;SDS011;66217;50.004;8.266;2023-04-15T08:46:31;9.95;;;3.25;;
77220;SDS011;66217;50.004;8.266;2023-04-15T08:48:58;9.98;;;3.40;;
77220;SDS011;66217;50.004;8.266;2023-04-15T08:51:24;7.07;;;3.72;;
77220;SDS011;66217;50.004;8.266;2023-04-15T08:53:51;5.22;;;2.92;;
77220;SDS011;66217;50.004;8.266;2023-04-15T08:56:17;8.27;;;3.58;;
77220;SDS011;66217;50.004;8.266;2023-04-15T08:58:44;5.75;;;3.35;;
77220;SDS011;66217;50.004;8.266;2023-04-15T09:01:11;7.97;;;3.55;;
77220;SDS011;66217;50.004;8.266;2023-04-15T09:03:37;4.90;;;2.95;;
77220;SDS011;66217;50.004;8.266;2023-04-15T09:06:03;8.57;;;3.72;;
77220;SDS011;66217;50.004;8.266;2023-04-15T09:08:30;25.95;;;10.88;;
77220;SDS011;66217;50.004;8.266;2023-04-15T09:10:55;6.35;;;2.90;;
77220;SDS011;66217;50.004;8.266;2023-04-15T09:13:21;11.88;;;5.22;;
77220;SDS011;66217;50.004;8.266;2023-04-15T09:15:46;9.55;;;3.90;;
77220;SDS011;66217;50.004;8.266;2023-04-15T09:18:13;11.02;;;5.10;;
77220;SDS011;66217;50.004;8.266;2023-04-15T09:20:52;14.18;;;5.82;;
77220;SDS011;66217;50.004;8.266;2023-04-15T09:23:17;11.52;;;4.38;;
77220;SDS011;66217;50.004;8.266;2023-04-15T09:25:43;9.45;;;3.03;;
77220;SDS011;66217;50.004;8.266;2023-04-15T09:28:09;6.82;;;3.08;;
77220;SDS011;66217;50.004;8.266;2023-04-15T09:30:35;6.75;;;2.80;;
77220;SDS011;66217;50.004;8.266;2023-04-15T09:33:02;8.57;;;3.08;;
77220;SDS011;66217;50.004;8.266;2023-04-15T09:35:33;5.38;;;2.38;;
77220;SDS011;66217;50.004;8.266;2023-04-15T09:38:04;2.20;;;1.58;;
77220;SDS011;66217;50.004;8.266;2023-04-15T09:43:00;2.53;;;1.40;;
77220;SDS011;66217;50.004;8.266;2023-04-15T09:45:27;3.97;;;1.65;;
77220;SDS011;66217;50.004;8.266;2023-04-15T09:47:52;3.88;;;1.67;;
77220;SDS011;66217;50.004;8.266;2023-04-15T09:50:18;2.88;;;1.40;;
77220;SDS011;66217;50.004;8.266;2023-04-15T09:52:44;4.72;;;1.42;;
77220;SDS011;66217;50.004;8.266;2023-04-15T09:55:10;1.90;;;1.10;;
77220;SDS011;66217;50.004;8.266;2023-04-15T09:57:37;3.28;;;1.40;;
77220;SDS011;66217;50.004;8.266;2023-04-15T10:00:03;1.73;;;1.30;;
77220;SDS011;66217;50.004;8.266;2023-04-15T10:02:31;2.75;;;1.40;;
77220;SDS011;66217;50.004;8.266;2023-04-15T10:04:57;2.45;;;1.20;;
77220;SDS011;66217;50.004;8.266;2023-04-15T10:07:23;2.42;;;1.40;;
77220;SDS011;66217;50.004;8.266;2023-04-15T10:09:50;3.90;;;1.42;;
77220;SDS011;66217;50.004;8.266;2023-04-15T10:12:16;3.90;;;1.40;;
77220;SDS011;66217;50.004;8.266;2023-04-15T10:14:41;4.22;;;1.60;;
77220;SDS011;66217;50.004;8.266;2023-04-15T10:17:09;3.80;;;1.30;;
77220;SDS011;66217;50.004;8.266;2023-04-15T10:19:36;6.63;;;1.30;;
77220;SDS011;66217;50.004;8.266;2023-04-15T10:22:02;3.47;;;1.38;;
77220;SDS011;66217;50.004;8.266;2023-04-15T10:24:29;3.83;;;1.23;;
77220;SDS011;66217;50.004;8.266;2023-04-15T10:26:56;2.05;;;1.40;;
77220;SDS011;66217;50.004;8.266;2023-04-15T10:29:22;2.58;;;1.48;;
77220;SDS011;66217;50.004;8.266;2023-04-15T10:31:51;2.88;;;1.30;;
77220;SDS011;66217;50.004;8.266;2023-04-15T10:34:18;2.67;;;1.40;;
77220;SDS011;66217;50.004;8.266;2023-04-15T10:36:44;4.20;;;1.60;;
77220;SDS011;66217;50.004;8.266;2023-04-15T10:42:08;3.40;;;1.50;;
77220;SDS011;66217;50.004;8.266;2023-04-15T10:44:38;3.08;;;1.63;;
77220;SDS011;66217;50.004;8.266;2023-04-15T10:47:13;3.03;;;1.50;;
77220;SDS011;66217;50.004;8.266;2023-04-15T10:52:15;3.15;;;1.70;;
77220;SDS011;66217;50.004;8.266;2023-04-15T10:54:42;3.40;;;1.38;;
77220;SDS011;66217;50.004;8.266;2023-04-15T10:57:14;4.82;;;1.70;;
77220;SDS011;66217;50.004;8.266;2023-04-15T11:02:42;2.60;;;1.25;;
77220;SDS011;66217;50.004;8.266;2023-04-15T11:05:10;1.77;;;1.50;;
77220;SDS011;66217;50.004;8.266;2023-04-15T11:07:46;2.97;;;1.35;;
77220;SDS011;66217;50.004;8.266;2023-04-15T11:20:35;2.38;;;1.27;;
77220;SDS011;66217;50.004;8.266;2023-04-15T11:23:02;5.82;;;1.40;;
77220;SDS011;66217;50.004;8.266;2023-04-15T11:25:29;2.97;;;1.50;;
77220;SDS011;66217;50.004;8.266;2023-04-15T11:27:55;4.25;;;1.60;;
77220;SDS011;66217;50.004;8.266;2023-04-15T11:30:24;3.35;;;1.30;;
77220;SDS011;66217;50.004;8.266;2023-04-15T11:32:51;2.92;;;1.20;;
77220;SDS011;66217;50.004;8.266;2023-04-15T11:35:18;1.52;;;1.15;;
77220;SDS011;66217;50.004;8.266;2023-04-15T11:37:44;1.83;;;1.30;;
77220;SDS011;66217;50.004;8.266;2023-04-15T11:40:10;2.53;;;1.30;;
77220;SDS011;66217;50.004;8.266;2023-04-15T11:42:35;3.10;;;1.17;;
77220;SDS011;66217;50.004;8.266;2023-04-15T11:45:11;1.20;;;1.05;;
77220;SDS011;66217;50.004;8.266;2023-04-15T11:47:38;2.13;;;1.02;;
77220;SDS011;66217;50.004;8.266;2023-04-15T11:50:21;2.42;;;1.20;;
77220;SDS011;66217;50.004;8.266;2023-04-15T11:55:19;2.15;;;1.17;;
77220;SDS011;66217;50.004;8.266;2023-04-15T11:57:45;9.98;;;1.20;;
77220;SDS011;66217;50.004;8.266;2023-04-15T12:00:11;2.28;;;1.23;;
77220;SDS011;66217;50.004;8.266;2023-04-15T12:02:37;1.77;;;1.20;;
77220;SDS011;66217;50.004;8.266;2023-04-15T12:05:03;2.60;;;1.52;;
77220;SDS011;66217;50.004;8.266;2023-04-15T12:07:30;3.70;;;1.52;;
77220;SDS011;66217;50.004;8.266;2023-04-15T12:09:56;3.13;;;1.40;;
77220;SDS011;66217;50.004;8.266;2023-04-15T12:12:25;3.00;;;1.30;;
77220;SDS011;66217;50.004;8.266;2023-04-15T12:14:52;3.08;;;1.23;;
77220;SDS011;66217;50.004;8.266;2023-04-15T12:17:17;2.70;;;1.30;;
77220;SDS011;66217;50.004;8.266;2023-04-15T12:19:43;5.65;;;1.10;;
77220;SDS011;66217;50.004;8.266;2023-04-15T12:22:13;1.85;;;1.20;;
77220;SDS011;66217;50.004;8.266;2023-04-15T12:24:40;3.85;;;1.50;;
77220;SDS011;66217;50.004;8.266;2023-04-15T12:27:11;2.47;;;1.30;;
77220;SDS011;66217;50.004;8.266;2023-04-15T12:29:38;2.35;;;1.38;;
77220;SDS011;66217;50.004;8.266;2023-04-15T12:32:06;1.63;;;1.33;;
77220;SDS011;66217;50.004;8.266;2023-04-15T12:34:34;1.88;;;1.33;;
77220;SDS011;66217;50.004;8.266;2023-04-15T12:37:02;1.40;;;1.30;;
77220;SDS011;66217;50.004;8.266;2023-04-15T12:39:30;1.23;;;1.08;;
77220;SDS011;66217;50.004;8.266;2023-04-15T12:41:57;1.77;;;1.40;;
77220;SDS011;66217;50.004;8.266;2023-04-15T12:44:24;2.63;;;1.30;;
77220;SDS011;66217;50.004;8.266;2023-04-15T12:46:49;2.55;;;1.20;;
77220;SDS011;66217;50.004;8.266;2023-04-15T12:49:16;2.42;;;1.70;;
77220;SDS011;66217;50.004;8.266;2023-04-15T12:51:44;1.50;;;1.10;;
77220;SDS011;66217;50.004;8.266;2023-04-15T12:54:11;2.38;;;1.40;;
77220;SDS011;66217;50.004;8.266;2023-04-15T12:56:36;1.65;;;1.30;;
77220;SDS011;66217;50.004;8.266;2023-04-15T12:59:02;2.58;;;1.17;;
77220;SDS011;66217;50.004;8.266;2023-04-15T13:01:27;2.08;;;1.42;;
77220;SDS011;66217;50.004;8.266;2023-04-15T13:03:53;3.08;;;1.50;;
77220;SDS011;66217;50.004;8.266;2023-04-15T13:06:18;2.35;;;1.48;;
77220;SDS011;66217;50.004;8.266;2023-04-15T13:08:43;1.88;;;1.50;;
77220;SDS011;66217;50.004;8.266;2023-04-15T13:11:09;2.38;;;1.42;;
77220;SDS011;66217;50.004;8.266;2023-04-15T13:13:35;2.10;;;1.50;;
77220;SDS011;66217;50.004;8.266;2023-04-15T13:16:00;3.03;;;1.40;;
77220;SDS011;66217;50.004;8.266;2023-04-15T13:18:26;3.35;;;1.40;;
77220;SDS011;66217;50.004;8.266;2023-04-15T13:20:51;1.70;;;1.45;;
77220;SDS011;66217;50.004;8.266;2023-04-15T13:23:18;3.42;;;1.40;;
77220;SDS011;66217;50.004;8.266;2023-04-15T13:25:44;2.28;;;1.42;;
77220;SDS011;66217;50.004;8.266;2023-04-15T13:28:10;2.35;;;1.60;;
77220;SDS011;66217;50.004;8.266;2023-04-15T13:30:36;3.25;;;1.67;;
77220;SDS011;66217;50.004;8.266;2023-04-15T13:33:02;2.22;;;1.40;;
77220;SDS011;66217;50.004;8.266;2023-04-15T13:35:27;4.35;;;1.38;;
77220;SDS011;66217;50.004;8.266;2023-04-15T13:37:53;1.75;;;1.40;;
77220;SDS011;66217;50.004;8.266;2023-04-15T13:40:19;2.58;;;1.30;;
77220;SDS011;66217;50.004;8.266;2023-04-15T13:42:45;2.47;;;1.60;;
77220;SDS011;66217;50.004;8.266;2023-04-15T13:45:11;1.63;;;1.40;;
77220;SDS011;66217;50.004;8.266;2023-04-15T13:47:36;4.78;;;1.42;;
77220;SDS011;66217;50.004;8.266;2023-04-15T13:50:02;2.17;;;1.63;;
77220;SDS011;66217;50.004;8.266;2023-04-15T13:52:27;1.85;;;1.30;;
77220;SDS011;66217;50.004;8.266;2023-04-15T13:54:53;2.40;;;1.58;;
77220;SDS011;66217;50.004;8.266;2023-04-15T13:57:18;2.88;;;1.30;;
77220;SDS011;66217;50.004;8.266;2023-04-15T13:59:44;2.45;;;1.67;;
77220;SDS011;66217;50.004;8.266;2023-04-15T14:02:09;3.47;;;1.60;;
77220;SDS011;66217;50.004;8.266;2023-04-15T14:04:35;3.58;;;1.70;;
77220;SDS011;66217;50.004;8.266;2023-04-15T14:07:00;3.08;;;1.55;;
77220;SDS011;66217;50.004;8.266;2023-04-15T14:09:26;4.22;;;1.70;;
77220;SDS011;66217;50.004;8.266;2023-04-15T14:11:52;1.77;;;1.45;;
77220;SDS011;66217;50.004;8.266;2023-04-15T14:14:17;2.53;;;1.38;;
77220;SDS011;66217;50.004;8.266;2023-04-15T14:16:42;2.97;;;1.70;;
77220;SDS011;66217;50.004;8.266;2023-04-15T14:19:08;1.98;;;1.60;;
77220;SDS011;66217;50.004;8.266;2023-04-15T14:21:33;2.85;;;1.52;;
77220;SDS011;66217;50.004;8.266;2023-04-15T14:23:59;1.98;;;1.60;;
77220;SDS011;66217;50.004;8.266;2023-04-15T14:26:24;2.17;;;1.38;;
77220;SDS011;66217;50.004;8.266;2023-04-15T14:28:50;2.83;;;1.50;;
77220;SDS011;66217;50.004;8.266;2023-04-15T14:31:16;2.80;;;1.33;;
77220;SDS011;66217;50.004;8.266;2023-04-15T14:33:41;2.78;;;1.70;;
77220;SDS011;66217;50.004;8.266;2023-04-15T14:36:07;3.47;;;1.77;;
77220;SDS011;66217;50.004;8.266;2023-04-15T14:38:33;3.00;;;1.58;;
77220;SDS011;66217;50.004;8.266;2023-04-15T14:41:05;2.00;;;1.80;;
77220;SDS011;66217;50.004;8.266;2023-04-15T14:43:32;3.90;;;1.70;;
77220;SDS011;66217;50.004;8.266;2023-04-15T14:45:58;3.50;;;1.70;;
77220;SDS011;66217;50.004;8.266;2023-04-15T14:48:23;2.80;;;1.85;;
77220;SDS011;66217;50.004;8.266;2023-04-15T14:50:48;1.95;;;1.67;;
77220;SDS011;66217;50.004;8.266;2023-04-15T14:53:14;6.25;;;2.35;;
77220;SDS011;66217;50.004;8.266;2023-04-15T14:55:40;2.50;;;1.75;;
77220;SDS011;66217;50.004;8.266;2023-04-15T14:58:05;2.50;;;1.80;;
77220;SDS011;66217;50.004;8.266;2023-04-15T15:00:32;5.53;;;3.25;;
77220;SDS011;66217;50.004;8.266;2023-04-15T15:02:57;3.83;;;2.10;;